createdAt,value
2023-05-14T00:00:22.728Z,105492.97
2023-05-14T00:02:49.749Z,105427.22
2023-05-14T00:05:16.573Z,105405.47
2023-05-14T00:07:43.235Z,105378.38
2023-05-14T00:10:10.228Z,105313.88
2023-05-14T00:12:36.801Z,105314.84
2023-05-14T00:15:03.381Z,105309.88
2023-05-14T00:17:30.032Z,105327.63
2023-05-14T00:19:56.847Z,105269.44
2023-05-14T00:22:23.503Z,105284.13
2023-05-14T00:24:50.125Z,105387.91
2023-05-14T00:27:16.840Z,105371.09
2023-05-14T00:29:43.317Z,105465.84
2023-05-14T00:32:09.816Z,105590.97
2023-05-14T00:34:36.311Z,105665.03
2023-05-14T00:37:02.802Z,105471.28
2023-05-14T00:39:29.387Z,105384.03
2023-05-14T00:41:56.181Z,105366.91
2023-05-14T00:44:22.799Z,105377.22
2023-05-14T00:46:49.467Z,105431.81
2023-05-14T00:49:16.544Z,105465.94
2023-05-14T00:51:43.290Z,105782.03
2023-05-14T00:54:09.807Z,105949.03
2023-05-14T00:56:36.403Z,106122.88
2023-05-14T00:59:02.841Z,106068.19
2023-05-14T01:01:29.635Z,105991.47
2023-05-14T01:03:56.449Z,105905.53
2023-05-14T01:06:59.048Z,106061.50
2023-05-14T01:09:46.765Z,106273.47
2023-05-14T01:12:25.200Z,106367.00
2023-05-14T01:15:07.234Z,106378.72
2023-05-14T01:17:46.310Z,107060.03
2023-05-14T01:20:12.819Z,107229.69
2023-05-14T01:22:39.365Z,107270.22
2023-05-14T01:25:06.824Z,107861.19
2023-05-14T01:27:43.615Z,108290.66
2023-05-14T01:30:19.478Z,108531.19
2023-05-14T01:32:51.069Z,108551.56
2023-05-14T01:35:18.807Z,108685.59
2023-05-14T01:37:47.105Z,108806.13
2023-05-14T01:40:13.706Z,108883.13
2023-05-14T01:42:41.133Z,108910.38
2023-05-14T01:45:08.588Z,108855.25
2023-05-14T01:47:35.110Z,108880.72
2023-05-14T01:50:01.535Z,108996.94
2023-05-14T01:52:27.947Z,108995.28
2023-05-14T01:54:54.477Z,108990.88
2023-05-14T01:57:20.867Z,108978.59
2023-05-14T01:59:47.301Z,109066.09
2023-05-14T02:02:13.733Z,109050.44
2023-05-14T02:04:40.161Z,108953.34
2023-05-14T02:07:06.604Z,108936.63
2023-05-14T02:09:33.078Z,108844.97
2023-05-14T02:11:59.541Z,108819.59
2023-05-14T02:14:25.952Z,108866.81
2023-05-14T02:16:52.477Z,108949.91
2023-05-14T02:19:18.933Z,109413.47
2023-05-14T02:21:45.410Z,106019.44
2023-05-14T02:24:11.852Z,105801.81
2023-05-14T02:26:38.289Z,105742.72
2023-05-14T02:29:04.688Z,105727.75
2023-05-14T02:31:31.123Z,105674.22
2023-05-14T02:33:57.646Z,105692.56
2023-05-14T02:36:24.090Z,105710.59
2023-05-14T02:38:50.527Z,105584.66
2023-05-14T02:41:16.947Z,105596.41
2023-05-14T02:43:43.422Z,105542.84
2023-05-14T02:46:09.909Z,105465.34
2023-05-14T02:48:36.341Z,105483.22
2023-05-14T02:51:02.863Z,105446.91
2023-05-14T02:53:29.354Z,105434.97
2023-05-14T02:55:55.858Z,105421.94
2023-05-14T02:58:26.447Z,105419.88
2023-05-14T03:00:55.388Z,105520.63
2023-05-14T03:03:22.449Z,105420.28
2023-05-14T03:05:49.438Z,105368.19
2023-05-14T03:08:15.844Z,105406.53
2023-05-14T03:10:42.254Z,105305.16
2023-05-14T03:13:08.710Z,105168.06
2023-05-14T03:15:35.124Z,105127.72
2023-05-14T03:18:01.693Z,105089.69
2023-05-14T03:20:28.290Z,105072.28
2023-05-14T03:22:54.964Z,105022.31
2023-05-14T03:25:21.571Z,104955.50
2023-05-14T03:27:48.050Z,104923.25
2023-05-14T03:30:14.503Z,104713.97
2023-05-14T03:32:40.965Z,104763.16
2023-05-14T03:35:07.905Z,104683.97
2023-05-14T03:37:34.330Z,104817.22
2023-05-14T03:40:00.771Z,104816.97
2023-05-14T03:42:27.260Z,104775.03
2023-05-14T03:44:53.723Z,104809.19
2023-05-14T03:47:20.318Z,104675.53
2023-05-14T03:49:46.860Z,104646.84
2023-05-14T03:52:13.298Z,104642.31
2023-05-14T03:54:39.695Z,104642.69
2023-05-14T03:57:06.108Z,104642.31
2023-05-14T03:59:32.601Z,104627.75
2023-05-14T04:01:59.307Z,104599.34
2023-05-14T04:04:26.008Z,104585.28
2023-05-14T04:06:52.497Z,104553.06
2023-05-14T04:09:18.912Z,104517.13
2023-05-14T04:11:45.303Z,104451.19
2023-05-14T04:14:11.741Z,104408.03
2023-05-14T04:16:38.275Z,104340.59
2023-05-14T04:19:04.773Z,104305.34
2023-05-14T04:21:31.648Z,104263.78
2023-05-14T04:23:58.288Z,104255.88
2023-05-14T04:26:24.706Z,104212.38
2023-05-14T04:28:51.081Z,104153.09
2023-05-14T04:31:17.613Z,104150.72
2023-05-14T04:33:44.119Z,104110.47
2023-05-14T04:36:10.557Z,104122.16
2023-05-14T04:38:36.978Z,104166.06
2023-05-14T04:41:03.512Z,104184.25
2023-05-14T04:43:29.930Z,104175.13
2023-05-14T04:45:56.434Z,104159.56
2023-05-14T04:48:22.911Z,104186.91
2023-05-14T04:50:49.369Z,104265.88
2023-05-14T04:53:15.789Z,104211.06
2023-05-14T04:55:42.427Z,104240.19
2023-05-14T04:58:08.824Z,104282.75
2023-05-14T05:00:35.290Z,104254.06
2023-05-14T05:03:01.837Z,104288.81
2023-05-14T05:05:28.497Z,104294.19
2023-05-14T05:07:55.077Z,104332.84
2023-05-14T05:10:21.800Z,104338.00
2023-05-14T05:12:48.524Z,104327.66
2023-05-14T05:15:14.956Z,104303.34
2023-05-14T05:17:41.412Z,104341.03
2023-05-14T05:20:08.486Z,104291.78
2023-05-14T05:22:34.976Z,104339.53
2023-05-14T05:25:01.493Z,104382.50
2023-05-14T05:27:28.022Z,104402.50
2023-05-14T05:29:54.398Z,104401.56
2023-05-14T05:32:20.921Z,104444.25
2023-05-14T05:34:47.341Z,104479.38
2023-05-14T05:37:13.803Z,104470.44
2023-05-14T05:39:40.408Z,104458.22
2023-05-14T05:42:07.337Z,104500.91
2023-05-14T05:44:33.800Z,104554.00
2023-05-14T05:47:00.371Z,104564.94
2023-05-14T05:49:26.880Z,104597.34
2023-05-14T05:51:53.370Z,104614.16
2023-05-14T05:54:19.849Z,104672.41
2023-05-14T05:56:46.366Z,104629.44
2023-05-14T05:59:12.994Z,104719.84
2023-05-14T06:01:39.438Z,104748.28
2023-05-14T06:04:05.983Z,104775.13
2023-05-14T06:06:32.484Z,104806.72
2023-05-14T06:08:59.069Z,104935.28
2023-05-14T06:11:25.546Z,104935.44
2023-05-14T06:13:51.983Z,104934.25
2023-05-14T06:16:18.528Z,104873.06
2023-05-14T06:18:45.194Z,105018.59
2023-05-14T06:21:11.726Z,105142.13
2023-05-14T06:23:38.233Z,105395.28
2023-05-14T06:26:04.801Z,105334.63
2023-05-14T06:28:31.243Z,105122.53
2023-05-14T06:30:57.673Z,105034.25
2023-05-14T06:33:24.158Z,105061.97
2023-05-14T06:35:50.666Z,105354.22
2023-05-14T06:38:17.093Z,105625.88
2023-05-14T06:40:43.511Z,105564.44
2023-05-14T06:43:09.977Z,105458.66
2023-05-14T06:45:36.488Z,105106.66
2023-05-14T06:48:03.151Z,104996.09
2023-05-14T06:50:29.595Z,104858.34
2023-05-14T06:52:56.103Z,104817.00
2023-05-14T06:55:22.717Z,104891.00
2023-05-14T06:57:49.212Z,105153.97
2023-05-14T07:00:16.282Z,105007.66
2023-05-14T07:02:42.857Z,105110.81
2023-05-14T07:05:10.381Z,105021.38
2023-05-14T07:07:36.846Z,104933.53
2023-05-14T07:10:03.718Z,104908.81
2023-05-14T07:12:30.209Z,104728.97
2023-05-14T07:14:56.594Z,104788.47
2023-05-14T07:17:23.206Z,104891.69
2023-05-14T07:19:49.795Z,104994.56
2023-05-14T07:22:16.259Z,105120.38
2023-05-14T07:24:42.747Z,105244.19
2023-05-14T07:27:09.221Z,105100.19
2023-05-14T07:29:35.674Z,105158.38
2023-05-14T07:32:02.104Z,105326.97
2023-05-14T07:34:28.602Z,105363.63
2023-05-14T07:36:55.237Z,105300.84
2023-05-14T07:39:21.750Z,105397.13
2023-05-14T07:41:48.238Z,105480.53
2023-05-14T07:44:14.711Z,105690.59
2023-05-14T07:46:42.478Z,105794.97
2023-05-14T07:49:08.902Z,105835.00
2023-05-14T07:51:35.336Z,105858.19
2023-05-14T07:54:01.822Z,106090.91
2023-05-14T07:56:28.311Z,106116.09
2023-05-14T07:58:54.811Z,106037.81
2023-05-14T08:01:21.274Z,106242.81
2023-05-14T08:03:47.983Z,106160.59
2023-05-14T08:06:14.669Z,106184.19
2023-05-14T08:08:41.249Z,106466.41
2023-05-14T08:11:07.824Z,106608.13
2023-05-14T08:13:34.455Z,106582.34
2023-05-14T08:16:00.980Z,106891.72
2023-05-14T08:18:27.420Z,106927.97
2023-05-14T08:20:53.984Z,106859.09
2023-05-14T08:23:20.736Z,106700.97
2023-05-14T08:25:47.252Z,106443.38
2023-05-14T08:28:13.696Z,106573.25
2023-05-14T08:30:40.285Z,107124.38
2023-05-14T08:33:06.815Z,107331.63
2023-05-14T08:35:33.304Z,106981.63
2023-05-14T08:37:59.825Z,106655.19
2023-05-14T08:40:26.834Z,106583.34
2023-05-14T08:42:55.454Z,106565.72
2023-05-14T08:45:27.852Z,106449.50
2023-05-14T08:47:55.560Z,106666.22
2023-05-14T08:50:23.352Z,106846.34
2023-05-14T08:52:50.537Z,106905.28
2023-05-14T08:55:17.066Z,106892.31
2023-05-14T08:57:43.477Z,107148.66
2023-05-14T09:00:10.521Z,107459.53
2023-05-14T09:02:38.107Z,107212.44
2023-05-14T09:05:04.878Z,106896.06
2023-05-14T09:07:31.882Z,107029.09
2023-05-14T09:09:59.277Z,107713.53
2023-05-14T09:12:25.743Z,107970.03
2023-05-14T09:14:52.384Z,107824.72
2023-05-14T09:17:19.524Z,107781.97
2023-05-14T09:19:47.129Z,108125.22
2023-05-14T09:22:16.001Z,107173.41
2023-05-14T09:24:43.082Z,107678.91
2023-05-14T09:27:10.263Z,108142.19
2023-05-14T09:29:36.686Z,108020.44
2023-05-14T09:32:03.489Z,108299.91
2023-05-14T09:34:32.309Z,107783.44
2023-05-14T09:37:06.522Z,108060.44
2023-05-14T09:39:34.480Z,108019.88
2023-05-14T09:42:00.935Z,108015.69
2023-05-14T09:44:27.777Z,107704.84
2023-05-14T09:46:55.344Z,108037.06
2023-05-14T09:49:22.059Z,107873.97
2023-05-14T09:51:49.597Z,107969.44
2023-05-14T09:54:16.494Z,106296.09
2023-05-14T09:56:44.316Z,108112.69
2023-05-14T09:59:11.140Z,108625.59
2023-05-14T10:01:37.938Z,108486.66
2023-05-14T10:04:07.659Z,108223.06
2023-05-14T10:06:38.080Z,110268.13
2023-05-14T10:09:10.010Z,110375.03
2023-05-14T10:11:38.519Z,110598.69
2023-05-14T10:14:13.611Z,112043.31
2023-05-14T10:16:44.047Z,111104.13
2023-05-14T10:19:12.767Z,109321.72
2023-05-14T10:21:41.507Z,110571.44
2023-05-14T10:24:09.934Z,111189.41
2023-05-14T10:26:39.225Z,110382.03
2023-05-14T10:29:06.682Z,109961.69
2023-05-14T10:31:50.815Z,109042.47
2023-05-14T10:34:43.202Z,106842.94
2023-05-14T10:37:15.421Z,106269.28
2023-05-14T10:39:47.152Z,105456.28
2023-05-14T10:42:25.841Z,105164.28
2023-05-14T10:45:01.397Z,104976.09
2023-05-14T10:47:39.107Z,104934.63
2023-05-14T10:50:07.414Z,104561.13
2023-05-14T10:52:34.275Z,104605.31
2023-05-14T10:55:05.330Z,104505.06
2023-05-14T10:57:32.621Z,104490.41
2023-05-14T11:00:02.912Z,104756.34
2023-05-14T11:02:32.521Z,104458.16
2023-05-14T11:05:10.330Z,104462.38
2023-05-14T11:07:42.442Z,104452.56
2023-05-14T11:10:14.050Z,104522.13
2023-05-14T11:12:42.718Z,104580.59
2023-05-14T11:15:11.317Z,104819.88
2023-05-14T11:17:40.192Z,104478.31
2023-05-14T11:20:07.609Z,104283.13
2023-05-14T11:22:35.006Z,104376.47
2023-05-14T11:25:01.875Z,104611.50
2023-05-14T11:27:28.379Z,104568.34
2023-05-14T11:29:54.830Z,104613.97
2023-05-14T11:32:21.780Z,104445.03
2023-05-14T11:34:48.255Z,104349.94
2023-05-14T11:37:16.480Z,104164.69
2023-05-14T11:39:50.706Z,104302.78
2023-05-14T11:42:18.033Z,104475.34
2023-05-14T11:44:48.862Z,104613.41
2023-05-14T11:47:17.108Z,104771.31
2023-05-14T11:49:43.703Z,104706.63
2023-05-14T11:52:10.916Z,104538.47
2023-05-14T11:54:37.939Z,104466.53
2023-05-14T11:57:12.671Z,104508.75
2023-05-14T11:59:39.817Z,104479.88
2023-05-14T12:02:10.770Z,104779.69
2023-05-14T12:04:37.388Z,104702.34
2023-05-14T12:07:15.545Z,104628.72
2023-05-14T12:09:46.108Z,104546.34
2023-05-14T12:12:12.971Z,104548.09
2023-05-14T12:14:42.181Z,104535.50
2023-05-14T12:17:19.770Z,104692.97
2023-05-14T12:19:48.979Z,104511.22
2023-05-14T12:22:18.083Z,104578.16
2023-05-14T12:24:53.185Z,104561.63
2023-05-14T12:27:22.692Z,104571.09
2023-05-14T12:29:49.196Z,104520.78
2023-05-14T12:32:15.631Z,104686.41
2023-05-14T12:34:42.153Z,104598.31
2023-05-14T12:37:08.676Z,104926.63
2023-05-14T12:39:35.300Z,104619.66
2023-05-14T12:42:01.883Z,104463.03
2023-05-14T12:44:28.886Z,104882.38
2023-05-14T12:46:55.503Z,105156.59
2023-05-14T12:49:22.061Z,104800.84
2023-05-14T12:51:48.765Z,105036.47
2023-05-14T12:54:15.815Z,105216.81
2023-05-14T12:56:42.967Z,105340.38
2023-05-14T12:59:09.496Z,105202.25
2023-05-14T13:01:36.058Z,105166.03
2023-05-14T13:04:02.518Z,105593.25
2023-05-14T13:06:29.055Z,105447.41
2023-05-14T13:08:55.514Z,105713.00
2023-05-14T13:11:21.997Z,105646.03
2023-05-14T13:13:48.463Z,105683.16
2023-05-14T13:16:15.103Z,106155.66
2023-05-14T13:18:41.582Z,106296.16
2023-05-14T13:21:08.099Z,106354.72
2023-05-14T13:23:34.599Z,106388.94
2023-05-14T13:26:01.165Z,106647.00
2023-05-14T13:28:27.676Z,106741.28
2023-05-14T13:31:11.246Z,106604.34
2023-05-14T13:33:41.232Z,106410.38
2023-05-14T13:36:08.265Z,106434.22
2023-05-14T13:38:34.989Z,106601.22
2023-05-14T13:41:01.573Z,106655.53
2023-05-14T13:43:29.313Z,106654.44
2023-05-14T13:45:55.836Z,106657.41
2023-05-14T13:48:22.478Z,106523.16
2023-05-14T13:50:49.449Z,106205.28
2023-05-14T13:53:15.905Z,105935.03
2023-05-14T13:55:42.396Z,106209.59
2023-05-14T13:58:08.897Z,106457.72
2023-05-14T14:00:35.400Z,106386.72
2023-05-14T14:03:01.982Z,106374.75
2023-05-14T14:05:28.514Z,106450.13
2023-05-14T14:08:01.086Z,106493.38
2023-05-14T14:10:34.696Z,106417.56
2023-05-14T14:13:01.237Z,106658.03
2023-05-14T14:15:27.848Z,106803.09
2023-05-14T14:17:54.459Z,106801.69
2023-05-14T14:20:21.067Z,106716.66
2023-05-14T14:22:47.596Z,106703.47
2023-05-14T14:25:14.109Z,106581.31
2023-05-14T14:27:40.827Z,106603.34
2023-05-14T14:30:09.067Z,106580.88
2023-05-14T14:32:35.859Z,106848.34
2023-05-14T14:35:02.350Z,106674.44
2023-05-14T14:37:28.972Z,106540.09
2023-05-14T14:39:55.507Z,106673.41
2023-05-14T14:42:21.956Z,106603.03
2023-05-14T14:44:48.330Z,106514.59
2023-05-14T14:47:14.746Z,106521.75
2023-05-14T14:49:41.226Z,106583.00
2023-05-14T14:52:08.378Z,106634.44
2023-05-14T14:54:34.914Z,106484.47
2023-05-14T14:57:01.368Z,106439.09
2023-05-14T14:59:27.790Z,106395.66
2023-05-14T15:01:54.222Z,106402.63
2023-05-14T15:04:20.655Z,106330.78
2023-05-14T15:06:47.076Z,106277.28
2023-05-14T15:09:13.590Z,106145.88
2023-05-14T15:11:40.500Z,106353.06
2023-05-14T15:14:06.972Z,105965.19
2023-05-14T15:16:33.524Z,105838.06
2023-05-14T15:19:00.038Z,105947.13
2023-05-14T15:21:26.570Z,105949.75
2023-05-14T15:23:52.989Z,105881.50
2023-05-14T15:26:19.431Z,105896.75
2023-05-14T15:28:45.912Z,106176.38
2023-05-14T15:31:12.465Z,106100.75
2023-05-14T15:33:38.976Z,106074.59
2023-05-14T15:36:06.830Z,106086.19
2023-05-14T15:38:33.467Z,106219.06
2023-05-14T15:41:00.329Z,106180.00
2023-05-14T15:43:26.767Z,106320.44
2023-05-14T15:45:53.333Z,106223.50
2023-05-14T15:48:19.800Z,106261.66
2023-05-14T15:50:49.569Z,106257.91
2023-05-14T15:53:16.265Z,106336.75
2023-05-14T15:55:42.785Z,106258.59
2023-05-14T15:58:09.255Z,106196.88
2023-05-14T16:00:35.654Z,106185.09
2023-05-14T16:03:02.316Z,106277.59
2023-05-14T16:05:29.303Z,106356.13
2023-05-14T16:07:55.866Z,106354.66
2023-05-14T16:10:22.814Z,106331.75
2023-05-14T16:12:49.550Z,106367.78
2023-05-14T16:15:17.162Z,106535.50
2023-05-14T16:17:43.761Z,106284.06
2023-05-14T16:20:11.146Z,106367.72
2023-05-14T16:22:37.774Z,106256.88
2023-05-14T16:25:04.693Z,106300.28
2023-05-14T16:27:31.269Z,106258.50
2023-05-14T16:29:58.007Z,106270.72
2023-05-14T16:32:24.536Z,106319.38
2023-05-14T16:34:51.129Z,106179.03
2023-05-14T16:37:18.009Z,106155.31
2023-05-14T16:39:44.821Z,106080.47
2023-05-14T16:42:11.775Z,105948.53
2023-05-14T16:44:38.336Z,105812.41
2023-05-14T16:47:05.155Z,105711.84
2023-05-14T16:49:31.808Z,105576.78
2023-05-14T16:51:58.325Z,105502.94
2023-05-14T16:54:24.805Z,105405.38
2023-05-14T16:56:51.592Z,105388.56
2023-05-14T16:59:18.052Z,105363.94
2023-05-14T17:01:44.774Z,105320.91
2023-05-14T17:04:11.396Z,105381.50
2023-05-14T17:06:38.105Z,105327.75
2023-05-14T17:09:04.546Z,105377.00
2023-05-14T17:11:31.042Z,105377.53
2023-05-14T17:13:57.491Z,105410.25
2023-05-14T17:16:24.076Z,105438.75
2023-05-14T17:18:50.606Z,105401.75
2023-05-14T17:21:17.317Z,105178.69
2023-05-14T17:23:43.729Z,105248.22
2023-05-14T17:26:10.186Z,105472.13
2023-05-14T17:28:36.614Z,105437.03
2023-05-14T17:31:03.162Z,105387.13
2023-05-14T17:33:29.717Z,105276.97
2023-05-14T17:35:56.218Z,105231.09
2023-05-14T17:38:22.707Z,105082.50
2023-05-14T17:40:49.100Z,105036.09
2023-05-14T17:43:15.700Z,104933.84
2023-05-14T17:45:53.126Z,104861.38
2023-05-14T17:48:20.717Z,104891.03
2023-05-14T17:50:47.250Z,104805.88
2023-05-14T17:53:13.860Z,104841.00
2023-05-14T17:55:40.432Z,104887.13
2023-05-14T17:58:07.034Z,105026.97
2023-05-14T18:00:33.560Z,105125.81
2023-05-14T18:03:00.111Z,105181.66
2023-05-14T18:05:26.784Z,105300.53
2023-05-14T18:07:53.286Z,105396.56
2023-05-14T18:10:19.806Z,105443.84
2023-05-14T18:12:46.336Z,105440.81
2023-05-14T18:15:12.797Z,105461.00
2023-05-14T18:17:39.311Z,105500.28
2023-05-14T18:20:07.457Z,105470.00
2023-05-14T18:22:33.945Z,105628.66
2023-05-14T18:25:00.462Z,105740.06
2023-05-14T18:27:26.955Z,105866.56
2023-05-14T18:29:53.403Z,105820.16
2023-05-14T18:32:19.890Z,105889.94
2023-05-14T18:34:46.476Z,105945.34
2023-05-14T18:37:13.261Z,106020.53
2023-05-14T18:39:39.834Z,105846.66
2023-05-14T18:42:06.801Z,105832.59
2023-05-14T18:44:33.279Z,105870.47
2023-05-14T18:46:59.805Z,105779.41
2023-05-14T18:49:26.203Z,105764.97
2023-05-14T18:51:52.582Z,105751.13
2023-05-14T18:54:19.043Z,105720.56
2023-05-14T18:56:47.460Z,105709.16
2023-05-14T18:59:14.240Z,105713.81
2023-05-14T19:01:40.791Z,105655.06
2023-05-14T19:04:07.481Z,105662.63
2023-05-14T19:06:34.957Z,105657.84
2023-05-14T19:09:01.390Z,105669.69
2023-05-14T19:11:27.782Z,105636.03
2023-05-14T19:13:54.220Z,105550.59
2023-05-14T19:16:20.750Z,105706.41
2023-05-14T19:18:47.289Z,105820.47
2023-05-14T19:21:13.819Z,105679.06
2023-05-14T19:23:40.261Z,105550.72
2023-05-14T19:26:07.157Z,105541.63
2023-05-14T19:28:33.750Z,105476.75
2023-05-14T19:31:00.215Z,105403.53
2023-05-14T19:33:26.628Z,105327.78
2023-05-14T19:35:53.328Z,105395.91
2023-05-14T19:38:19.830Z,105435.91
2023-05-14T19:40:46.299Z,105565.25
2023-05-14T19:43:12.862Z,105613.56
2023-05-14T19:45:39.580Z,105653.03
2023-05-14T19:48:06.404Z,105457.75
2023-05-14T19:50:33.201Z,105539.75
2023-05-14T19:53:00.204Z,105676.69
2023-05-14T19:55:26.772Z,105739.59
2023-05-14T19:57:53.364Z,105679.91
2023-05-14T20:00:20.094Z,105833.22
2023-05-14T20:02:46.626Z,105729.97
2023-05-14T20:05:13.183Z,105765.19
2023-05-14T20:07:40.456Z,105844.56
2023-05-14T20:10:07.820Z,105925.31
2023-05-14T20:12:34.288Z,105891.75
2023-05-14T20:15:00.829Z,105970.16
2023-05-14T20:17:27.351Z,105937.06
2023-05-14T20:19:53.777Z,106041.50
2023-05-14T20:22:20.160Z,106050.34
2023-05-14T20:24:46.616Z,106111.81
2023-05-14T20:27:13.077Z,105941.31
2023-05-14T20:29:39.575Z,105899.22
2023-05-14T20:32:06.556Z,105959.28
2023-05-14T20:34:32.989Z,105992.09
2023-05-14T20:36:59.563Z,106137.97
2023-05-14T20:39:25.988Z,106146.13
2023-05-14T20:41:52.435Z,106161.50
2023-05-14T20:44:20.592Z,106272.00
2023-05-14T20:46:47.747Z,106292.03
2023-05-14T20:49:14.190Z,106204.53
2023-05-14T20:51:40.585Z,106220.44
2023-05-14T20:54:07.087Z,106297.88
2023-05-14T20:56:33.691Z,106267.81
2023-05-14T20:59:00.116Z,106297.31
2023-05-14T21:01:26.537Z,106149.94
2023-05-14T21:03:53.236Z,106258.78
2023-05-14T21:06:19.943Z,106235.59
2023-05-14T21:08:46.462Z,106340.63
2023-05-14T21:11:13.195Z,106355.97
2023-05-14T21:13:39.765Z,106205.66
2023-05-14T21:16:06.732Z,106258.88
2023-05-14T21:18:33.349Z,106180.41
2023-05-14T21:20:59.840Z,106185.84
2023-05-14T21:23:26.378Z,106302.34
2023-05-14T21:25:52.873Z,106212.78
2023-05-14T21:28:19.288Z,106189.50
2023-05-14T21:30:45.784Z,106287.09
2023-05-14T21:33:12.330Z,106308.03
2023-05-14T21:35:38.791Z,106338.69
2023-05-14T21:38:05.305Z,106465.63
2023-05-14T21:40:31.728Z,106360.47
2023-05-14T21:42:58.147Z,106349.84
2023-05-14T21:45:24.749Z,106390.22
2023-05-14T21:47:51.618Z,106217.84
2023-05-14T21:50:18.368Z,106404.50
2023-05-14T21:52:44.906Z,106474.31
2023-05-14T21:55:11.352Z,106451.34
2023-05-14T21:57:37.936Z,106478.28
2023-05-14T22:00:05.200Z,106640.41
2023-05-14T22:02:32.452Z,106628.66
2023-05-14T22:04:59.101Z,106729.81
2023-05-14T22:07:25.535Z,106764.09
2023-05-14T22:09:52.775Z,106822.59
2023-05-14T22:12:19.450Z,106881.34
2023-05-14T22:14:46.140Z,106871.59
2023-05-14T22:17:12.626Z,106730.84
2023-05-14T22:19:39.231Z,105790.00
2023-05-14T22:22:05.726Z,106830.78
2023-05-14T22:24:32.199Z,107220.69
2023-05-14T22:26:58.631Z,107368.41
2023-05-14T22:29:25.121Z,107336.69
2023-05-14T22:31:51.664Z,107440.78
2023-05-14T22:34:18.235Z,107741.94
2023-05-14T22:36:44.762Z,107854.13
2023-05-14T22:39:13.211Z,107678.41
2023-05-14T22:41:40.090Z,107243.75
2023-05-14T22:44:06.543Z,107089.56
2023-05-14T22:46:33.078Z,107240.31
2023-05-14T22:48:59.524Z,107189.03
2023-05-14T22:51:26.014Z,107160.84
2023-05-14T22:53:52.470Z,107288.22
2023-05-14T22:56:19.467Z,106754.66
2023-05-14T22:58:45.905Z,106723.84
2023-05-14T23:01:12.454Z,106796.31
2023-05-14T23:03:39.021Z,107297.03
2023-05-14T23:06:05.675Z,107796.66
2023-05-14T23:08:32.123Z,108180.09
2023-05-14T23:10:59.707Z,108356.84
2023-05-14T23:13:26.167Z,108168.16
2023-05-14T23:15:52.635Z,108079.59
2023-05-14T23:18:19.135Z,107957.50
2023-05-14T23:20:45.655Z,107428.69
2023-05-14T23:23:12.228Z,107258.81
2023-05-14T23:25:39.107Z,107356.94
2023-05-14T23:28:06.122Z,107474.59
2023-05-14T23:30:32.719Z,107448.72
2023-05-14T23:32:59.204Z,107459.03
2023-05-14T23:35:26.434Z,107477.97
2023-05-14T23:37:53.466Z,107426.50
2023-05-14T23:40:19.889Z,107364.59
2023-05-14T23:42:46.577Z,107380.41
2023-05-14T23:45:13.426Z,107218.81
2023-05-14T23:47:40.986Z,106976.78
2023-05-14T23:50:07.887Z,106744.94
2023-05-14T23:52:34.364Z,106807.00
2023-05-14T23:55:00.857Z,106998.31
2023-05-14T23:57:27.438Z,106887.94
2023-05-14T23:59:53.931Z,107071.34
